sensor_id;sensor_type;location;lat;lon;timestamp;P1;durP1;ratioP1;P2;durP2;ratioP2
61108;SDS011;46995;55.740;37.402;2022-11-25T00:01:47;12.25;;;5.40;;
61108;SDS011;46995;55.740;37.402;2022-11-25T00:04:13;9.57;;;5.80;;
61108;SDS011;46995;55.740;37.402;2022-11-25T00:06:39;12.00;;;5.47;;
61108;SDS011;46995;55.740;37.402;2022-11-25T00:09:11;11.38;;;4.90;;
61108;SDS011;46995;55.740;37.402;2022-11-25T00:11:38;11.48;;;5.05;;
61108;SDS011;46995;55.740;37.402;2022-11-25T00:14:05;9.55;;;5.57;;
61108;SDS011;46995;55.740;37.402;2022-11-25T00:16:32;9.70;;;5.25;;
61108;SDS011;46995;55.740;37.402;2022-11-25T00:18:58;16.00;;;5.85;;
61108;SDS011;46995;55.740;37.402;2022-11-25T00:21:25;11.57;;;5.13;;
61108;SDS011;46995;55.740;37.402;2022-11-25T00:23:56;14.02;;;6.13;;
61108;SDS011;46995;55.740;37.402;2022-11-25T00:26:27;11.60;;;5.82;;
61108;SDS011;46995;55.740;37.402;2022-11-25T00:28:54;8.98;;;4.88;;
61108;SDS011;46995;55.740;37.402;2022-11-25T00:31:23;10.23;;;5.05;;
61108;SDS011;46995;55.740;37.402;2022-11-25T00:33:53;10.45;;;5.40;;
61108;SDS011;46995;55.740;37.402;2022-11-25T00:38:45;12.05;;;5.22;;
61108;SDS011;46995;55.740;37.402;2022-11-25T00:41:11;10.18;;;4.78;;
61108;SDS011;46995;55.740;37.402;2022-11-25T00:43:56;10.40;;;5.00;;
61108;SDS011;46995;55.740;37.402;2022-11-25T00:46:41;13.77;;;5.63;;
61108;SDS011;46995;55.740;37.402;2022-11-25T00:49:07;9.13;;;5.30;;
61108;SDS011;46995;55.740;37.402;2022-11-25T00:51:33;10.85;;;5.22;;
61108;SDS011;46995;55.740;37.402;2022-11-25T00:53:59;10.82;;;5.00;;
61108;SDS011;46995;55.740;37.402;2022-11-25T00:56:24;12.82;;;5.38;;
61108;SDS011;46995;55.740;37.402;2022-11-25T00:58:51;9.73;;;4.75;;
61108;SDS011;46995;55.740;37.402;2022-11-25T01:01:17;9.82;;;4.97;;
61108;SDS011;46995;55.740;37.402;2022-11-25T01:03:43;12.45;;;5.20;;
61108;SDS011;46995;55.740;37.402;2022-11-25T01:06:11;12.45;;;5.90;;
61108;SDS011;46995;55.740;37.402;2022-11-25T01:08:37;10.35;;;5.45;;
61108;SDS011;46995;55.740;37.402;2022-11-25T01:11:07;10.45;;;5.53;;
61108;SDS011;46995;55.740;37.402;2022-11-25T01:13:39;12.18;;;5.40;;
61108;SDS011;46995;55.740;37.402;2022-11-25T01:16:10;9.98;;;5.38;;
61108;SDS011;46995;55.740;37.402;2022-11-25T01:18:38;10.52;;;5.50;;
61108;SDS011;46995;55.740;37.402;2022-11-25T01:21:11;10.63;;;6.25;;
61108;SDS011;46995;55.740;37.402;2022-11-25T01:23:57;11.98;;;6.18;;
61108;SDS011;46995;55.740;37.402;2022-11-25T01:26:24;11.15;;;6.00;;
61108;SDS011;46995;55.740;37.402;2022-11-25T01:28:53;11.20;;;5.40;;
61108;SDS011;46995;55.740;37.402;2022-11-25T01:31:24;11.93;;;5.55;;
61108;SDS011;46995;55.740;37.402;2022-11-25T01:33:53;12.07;;;6.10;;
61108;SDS011;46995;55.740;37.402;2022-11-25T01:36:23;13.02;;;6.28;;
61108;SDS011;46995;55.740;37.402;2022-11-25T01:38:50;13.75;;;6.22;;
61108;SDS011;46995;55.740;37.402;2022-11-25T01:41:18;12.93;;;6.90;;
61108;SDS011;46995;55.740;37.402;2022-11-25T01:44:04;11.68;;;6.35;;
61108;SDS011;46995;55.740;37.402;2022-11-25T01:46:36;12.55;;;6.05;;
61108;SDS011;46995;55.740;37.402;2022-11-25T01:54:34;11.50;;;6.00;;
61108;SDS011;46995;55.740;37.402;2022-11-25T01:57:05;13.10;;;5.80;;
61108;SDS011;46995;55.740;37.402;2022-11-25T01:59:38;9.63;;;5.38;;
61108;SDS011;46995;55.740;37.402;2022-11-25T02:02:09;12.82;;;6.57;;
61108;SDS011;46995;55.740;37.402;2022-11-25T02:04:36;13.70;;;5.40;;
61108;SDS011;46995;55.740;37.402;2022-11-25T02:07:08;11.20;;;5.80;;
61108;SDS011;46995;55.740;37.402;2022-11-25T02:09:50;8.95;;;5.72;;
61108;SDS011;46995;55.740;37.402;2022-11-25T02:12:16;13.65;;;6.45;;
61108;SDS011;46995;55.740;37.402;2022-11-25T02:15:03;9.52;;;5.30;;
61108;SDS011;46995;55.740;37.402;2022-11-25T02:17:29;9.30;;;5.75;;
61108;SDS011;46995;55.740;37.402;2022-11-25T02:25:14;9.40;;;5.53;;
61108;SDS011;46995;55.740;37.402;2022-11-25T02:27:56;10.85;;;5.18;;
61108;SDS011;46995;55.740;37.402;2022-11-25T02:30:25;10.73;;;5.60;;
61108;SDS011;46995;55.740;37.402;2022-11-25T02:32:52;11.25;;;6.00;;
61108;SDS011;46995;55.740;37.402;2022-11-25T02:38:18;12.98;;;5.95;;
61108;SDS011;46995;55.740;37.402;2022-11-25T02:41:03;12.07;;;5.90;;
61108;SDS011;46995;55.740;37.402;2022-11-25T02:43:34;14.02;;;6.15;;
61108;SDS011;46995;55.740;37.402;2022-11-25T02:46:05;11.50;;;5.70;;
61108;SDS011;46995;55.740;37.402;2022-11-25T02:48:33;12.45;;;6.20;;
61108;SDS011;46995;55.740;37.402;2022-11-25T02:51:03;10.65;;;5.05;;
61108;SDS011;46995;55.740;37.402;2022-11-25T02:53:30;13.38;;;6.53;;
61108;SDS011;46995;55.740;37.402;2022-11-25T02:55:56;15.85;;;7.25;;
61108;SDS011;46995;55.740;37.402;2022-11-25T02:58:21;11.48;;;5.88;;
61108;SDS011;46995;55.740;37.402;2022-11-25T03:00:47;12.88;;;6.72;;
61108;SDS011;46995;55.740;37.402;2022-11-25T03:03:14;14.02;;;6.32;;
61108;SDS011;46995;55.740;37.402;2022-11-25T03:05:40;12.63;;;5.65;;
61108;SDS011;46995;55.740;37.402;2022-11-25T03:08:06;11.93;;;6.28;;
61108;SDS011;46995;55.740;37.402;2022-11-25T03:10:36;13.68;;;6.65;;
61108;SDS011;46995;55.740;37.402;2022-11-25T03:13:04;11.98;;;6.07;;
61108;SDS011;46995;55.740;37.402;2022-11-25T03:15:31;11.98;;;6.13;;
61108;SDS011;46995;55.740;37.402;2022-11-25T03:17:59;11.20;;;6.85;;
61108;SDS011;46995;55.740;37.402;2022-11-25T03:20:27;13.43;;;6.25;;
61108;SDS011;46995;55.740;37.402;2022-11-25T03:22:53;16.33;;;6.68;;
61108;SDS011;46995;55.740;37.402;2022-11-25T03:25:18;12.40;;;6.10;;
61108;SDS011;46995;55.740;37.402;2022-11-25T03:27:48;12.90;;;7.10;;
61108;SDS011;46995;55.740;37.402;2022-11-25T03:30:16;12.23;;;6.60;;
61108;SDS011;46995;55.740;37.402;2022-11-25T03:32:45;12.63;;;6.28;;
61108;SDS011;46995;55.740;37.402;2022-11-25T03:35:12;13.10;;;6.22;;
61108;SDS011;46995;55.740;37.402;2022-11-25T03:40:06;11.95;;;6.28;;
61108;SDS011;46995;55.740;37.402;2022-11-25T03:42:33;15.48;;;6.53;;
61108;SDS011;46995;55.740;37.402;2022-11-25T03:45:00;13.68;;;6.78;;
61108;SDS011;46995;55.740;37.402;2022-11-25T03:47:29;11.13;;;6.38;;
61108;SDS011;46995;55.740;37.402;2022-11-25T03:49:55;13.03;;;6.77;;
61108;SDS011;46995;55.740;37.402;2022-11-25T03:52:21;11.68;;;7.00;;
61108;SDS011;46995;55.740;37.402;2022-11-25T03:57:18;14.55;;;6.75;;
61108;SDS011;46995;55.740;37.402;2022-11-25T03:59:43;14.85;;;7.25;;
61108;SDS011;46995;55.740;37.402;2022-11-25T04:02:09;13.27;;;6.60;;
61108;SDS011;46995;55.740;37.402;2022-11-25T04:04:35;13.23;;;6.00;;
61108;SDS011;46995;55.740;37.402;2022-11-25T04:07:01;13.60;;;6.68;;
61108;SDS011;46995;55.740;37.402;2022-11-25T04:09:27;16.38;;;7.32;;
61108;SDS011;46995;55.740;37.402;2022-11-25T04:11:55;13.90;;;6.72;;
61108;SDS011;46995;55.740;37.402;2022-11-25T04:14:54;14.73;;;7.10;;
61108;SDS011;46995;55.740;37.402;2022-11-25T04:17:19;12.43;;;6.38;;
61108;SDS011;46995;55.740;37.402;2022-11-25T04:19:46;12.18;;;6.18;;
61108;SDS011;46995;55.740;37.402;2022-11-25T04:22:13;15.02;;;8.55;;
61108;SDS011;46995;55.740;37.402;2022-11-25T04:24:41;18.98;;;6.75;;
61108;SDS011;46995;55.740;37.402;2022-11-25T04:27:08;14.33;;;6.77;;
61108;SDS011;46995;55.740;37.402;2022-11-25T04:29:34;12.85;;;6.72;;
61108;SDS011;46995;55.740;37.402;2022-11-25T04:32:02;12.10;;;6.85;;
61108;SDS011;46995;55.740;37.402;2022-11-25T04:34:38;14.30;;;6.75;;
61108;SDS011;46995;55.740;37.402;2022-11-25T04:37:04;16.17;;;7.55;;
61108;SDS011;46995;55.740;37.402;2022-11-25T04:39:30;15.25;;;7.00;;
61108;SDS011;46995;55.740;37.402;2022-11-25T04:41:59;12.98;;;6.38;;
61108;SDS011;46995;55.740;37.402;2022-11-25T04:44:44;16.00;;;7.43;;
61108;SDS011;46995;55.740;37.402;2022-11-25T04:47:11;19.88;;;6.85;;
61108;SDS011;46995;55.740;37.402;2022-11-25T04:49:37;14.25;;;6.68;;
61108;SDS011;46995;55.740;37.402;2022-11-25T04:52:03;13.75;;;6.93;;
61108;SDS011;46995;55.740;37.402;2022-11-25T04:54:29;14.20;;;7.50;;
61108;SDS011;46995;55.740;37.402;2022-11-25T04:56:58;15.30;;;7.32;;
61108;SDS011;46995;55.740;37.402;2022-11-25T04:59:25;15.15;;;6.55;;
61108;SDS011;46995;55.740;37.402;2022-11-25T05:02:13;13.48;;;6.80;;
61108;SDS011;46995;55.740;37.402;2022-11-25T05:04:52;16.60;;;6.75;;
61108;SDS011;46995;55.740;37.402;2022-11-25T05:07:22;16.50;;;7.70;;
61108;SDS011;46995;55.740;37.402;2022-11-25T05:09:55;15.38;;;7.95;;
61108;SDS011;46995;55.740;37.402;2022-11-25T05:12:40;13.98;;;7.57;;
61108;SDS011;46995;55.740;37.402;2022-11-25T05:15:10;19.30;;;8.20;;
61108;SDS011;46995;55.740;37.402;2022-11-25T05:17:38;20.35;;;9.07;;
61108;SDS011;46995;55.740;37.402;2022-11-25T05:20:04;16.88;;;8.32;;
61108;SDS011;46995;55.740;37.402;2022-11-25T05:22:32;16.77;;;8.43;;
61108;SDS011;46995;55.740;37.402;2022-11-25T05:24:59;22.73;;;7.97;;
61108;SDS011;46995;55.740;37.402;2022-11-25T05:27:29;20.33;;;8.10;;
61108;SDS011;46995;55.740;37.402;2022-11-25T05:29:59;23.48;;;8.48;;
61108;SDS011;46995;55.740;37.402;2022-11-25T05:32:26;16.45;;;8.88;;
61108;SDS011;46995;55.740;37.402;2022-11-25T05:34:55;17.60;;;8.00;;
61108;SDS011;46995;55.740;37.402;2022-11-25T05:37:21;17.80;;;8.07;;
61108;SDS011;46995;55.740;37.402;2022-11-25T05:39:52;20.15;;;9.13;;
61108;SDS011;46995;55.740;37.402;2022-11-25T05:42:37;19.23;;;8.82;;
61108;SDS011;46995;55.740;37.402;2022-11-25T05:45:06;20.50;;;8.52;;
61108;SDS011;46995;55.740;37.402;2022-11-25T05:47:34;19.10;;;9.18;;
61108;SDS011;46995;55.740;37.402;2022-11-25T05:50:01;20.58;;;8.65;;
61108;SDS011;46995;55.740;37.402;2022-11-25T05:52:29;19.55;;;8.88;;
61108;SDS011;46995;55.740;37.402;2022-11-25T05:55:00;20.00;;;9.23;;
61108;SDS011;46995;55.740;37.402;2022-11-25T05:57:26;24.90;;;10.27;;
61108;SDS011;46995;55.740;37.402;2022-11-25T05:59:58;21.23;;;9.07;;
61108;SDS011;46995;55.740;37.402;2022-11-25T06:02:44;21.00;;;10.03;;
61108;SDS011;46995;55.740;37.402;2022-11-25T06:05:14;22.83;;;9.82;;
61108;SDS011;46995;55.740;37.402;2022-11-25T06:07:40;19.42;;;10.10;;
61108;SDS011;46995;55.740;37.402;2022-11-25T06:10:06;20.23;;;9.68;;
61108;SDS011;46995;55.740;37.402;2022-11-25T06:12:36;24.60;;;10.32;;
61108;SDS011;46995;55.740;37.402;2022-11-25T06:15:02;22.48;;;10.05;;
61108;SDS011;46995;55.740;37.402;2022-11-25T06:17:29;18.90;;;9.82;;
61108;SDS011;46995;55.740;37.402;2022-11-25T06:20:22;22.67;;;9.57;;
61108;SDS011;46995;55.740;37.402;2022-11-25T06:22:47;30.08;;;10.50;;
61108;SDS011;46995;55.740;37.402;2022-11-25T06:25:18;27.52;;;11.07;;
61108;SDS011;46995;55.740;37.402;2022-11-25T06:30:12;17.10;;;8.40;;
61108;SDS011;46995;55.740;37.402;2022-11-25T06:32:44;21.88;;;9.57;;
61108;SDS011;46995;55.740;37.402;2022-11-25T06:35:18;22.48;;;9.63;;
61108;SDS011;46995;55.740;37.402;2022-11-25T06:37:54;20.92;;;9.07;;
61108;SDS011;46995;55.740;37.402;2022-11-25T06:40:21;21.08;;;8.80;;
61108;SDS011;46995;55.740;37.402;2022-11-25T06:42:46;19.15;;;9.70;;
61108;SDS011;46995;55.740;37.402;2022-11-25T06:45:12;19.80;;;8.80;;
61108;SDS011;46995;55.740;37.402;2022-11-25T06:47:38;22.60;;;9.63;;
61108;SDS011;46995;55.740;37.402;2022-11-25T06:50:03;22.08;;;9.05;;
61108;SDS011;46995;55.740;37.402;2022-11-25T06:52:30;22.98;;;9.38;;
61108;SDS011;46995;55.740;37.402;2022-11-25T06:54:56;18.35;;;9.10;;
61108;SDS011;46995;55.740;37.402;2022-11-25T06:57:22;34.20;;;10.00;;
61108;SDS011;46995;55.740;37.402;2022-11-25T06:59:47;22.38;;;9.50;;
61108;SDS011;46995;55.740;37.402;2022-11-25T07:02:16;28.38;;;10.70;;
61108;SDS011;46995;55.740;37.402;2022-11-25T07:04:42;24.90;;;9.63;;
61108;SDS011;46995;55.740;37.402;2022-11-25T07:07:09;19.92;;;9.32;;
61108;SDS011;46995;55.740;37.402;2022-11-25T07:09:35;21.63;;;9.73;;
61108;SDS011;46995;55.740;37.402;2022-11-25T07:12:03;18.25;;;8.80;;
61108;SDS011;46995;55.740;37.402;2022-11-25T07:14:30;23.35;;;9.63;;
61108;SDS011;46995;55.740;37.402;2022-11-25T07:16:55;20.52;;;8.95;;
61108;SDS011;46995;55.740;37.402;2022-11-25T07:19:21;24.60;;;9.70;;
61108;SDS011;46995;55.740;37.402;2022-11-25T07:21:47;16.88;;;8.38;;
61108;SDS011;46995;55.740;37.402;2022-11-25T07:24:13;22.63;;;9.23;;
61108;SDS011;46995;55.740;37.402;2022-11-25T07:26:40;21.55;;;9.35;;
61108;SDS011;46995;55.740;37.402;2022-11-25T07:29:11;25.20;;;9.23;;
61108;SDS011;46995;55.740;37.402;2022-11-25T07:31:40;20.15;;;8.95;;
61108;SDS011;46995;55.740;37.402;2022-11-25T07:36:39;24.40;;;9.15;;
61108;SDS011;46995;55.740;37.402;2022-11-25T07:39:07;20.90;;;9.57;;
61108;SDS011;46995;55.740;37.402;2022-11-25T07:41:37;20.27;;;9.00;;
61108;SDS011;46995;55.740;37.402;2022-11-25T07:46:48;19.23;;;9.02;;
61108;SDS011;46995;55.740;37.402;2022-11-25T07:49:18;22.23;;;9.55;;
61108;SDS011;46995;55.740;37.402;2022-11-25T07:51:47;18.38;;;8.60;;
61108;SDS011;46995;55.740;37.402;2022-11-25T07:54:28;18.65;;;9.07;;
61108;SDS011;46995;55.740;37.402;2022-11-25T07:56:55;21.00;;;8.55;;
61108;SDS011;46995;55.740;37.402;2022-11-25T07:59:21;28.42;;;9.52;;
61108;SDS011;46995;55.740;37.402;2022-11-25T08:01:51;23.85;;;9.50;;
61108;SDS011;46995;55.740;37.402;2022-11-25T08:04:19;20.23;;;9.20;;
61108;SDS011;46995;55.740;37.402;2022-11-25T08:06:45;19.42;;;9.30;;
61108;SDS011;46995;55.740;37.402;2022-11-25T08:09:14;20.92;;;9.77;;
61108;SDS011;46995;55.740;37.402;2022-11-25T08:11:45;22.20;;;9.80;;
61108;SDS011;46995;55.740;37.402;2022-11-25T08:14:12;21.35;;;9.95;;
61108;SDS011;46995;55.740;37.402;2022-11-25T08:16:39;19.90;;;9.32;;
61108;SDS011;46995;55.740;37.402;2022-11-25T08:19:06;23.35;;;10.57;;
61108;SDS011;46995;55.740;37.402;2022-11-25T08:21:34;22.73;;;9.90;;
61108;SDS011;46995;55.740;37.402;2022-11-25T08:23:59;18.52;;;10.05;;
61108;SDS011;46995;55.740;37.402;2022-11-25T08:28:58;18.10;;;8.20;;
61108;SDS011;46995;55.740;37.402;2022-11-25T08:31:26;23.45;;;10.00;;
61108;SDS011;46995;55.740;37.402;2022-11-25T08:33:55;18.42;;;8.95;;
61108;SDS011;46995;55.740;37.402;2022-11-25T08:36:21;20.73;;;9.95;;
61108;SDS011;46995;55.740;37.402;2022-11-25T08:38:49;17.17;;;9.13;;
61108;SDS011;46995;55.740;37.402;2022-11-25T08:41:18;25.45;;;9.68;;
61108;SDS011;46995;55.740;37.402;2022-11-25T08:43:49;18.92;;;8.95;;
61108;SDS011;46995;55.740;37.402;2022-11-25T08:46:20;22.10;;;8.68;;
61108;SDS011;46995;55.740;37.402;2022-11-25T08:48:48;22.02;;;8.98;;
61108;SDS011;46995;55.740;37.402;2022-11-25T08:51:15;17.20;;;9.27;;
61108;SDS011;46995;55.740;37.402;2022-11-25T08:53:43;23.90;;;9.05;;
61108;SDS011;46995;55.740;37.402;2022-11-25T08:56:10;21.17;;;8.93;;
61108;SDS011;46995;55.740;37.402;2022-11-25T08:58:37;20.90;;;8.75;;
61108;SDS011;46995;55.740;37.402;2022-11-25T09:01:03;18.15;;;8.95;;
61108;SDS011;46995;55.740;37.402;2022-11-25T09:03:31;25.60;;;9.55;;
61108;SDS011;46995;55.740;37.402;2022-11-25T09:05:58;23.75;;;9.50;;
61108;SDS011;46995;55.740;37.402;2022-11-25T09:08:25;18.75;;;8.50;;
61108;SDS011;46995;55.740;37.402;2022-11-25T09:10:51;18.50;;;9.40;;
61108;SDS011;46995;55.740;37.402;2022-11-25T09:13:17;20.92;;;9.45;;
61108;SDS011;46995;55.740;37.402;2022-11-25T09:15:42;23.63;;;9.05;;
61108;SDS011;46995;55.740;37.402;2022-11-25T09:18:09;26.67;;;10.55;;
61108;SDS011;46995;55.740;37.402;2022-11-25T09:20:39;20.70;;;9.57;;
61108;SDS011;46995;55.740;37.402;2022-11-25T09:23:06;22.55;;;10.15;;
61108;SDS011;46995;55.740;37.402;2022-11-25T09:25:33;23.92;;;9.90;;
61108;SDS011;46995;55.740;37.402;2022-11-25T09:28:00;22.08;;;9.52;;
61108;SDS011;46995;55.740;37.402;2022-11-25T09:30:26;23.35;;;10.00;;
61108;SDS011;46995;55.740;37.402;2022-11-25T09:32:53;17.65;;;9.13;;
61108;SDS011;46995;55.740;37.402;2022-11-25T09:35:20;19.23;;;8.98;;
61108;SDS011;46995;55.740;37.402;2022-11-25T09:37:47;18.23;;;9.02;;
61108;SDS011;46995;55.740;37.402;2022-11-25T09:43:17;23.40;;;9.85;;
61108;SDS011;46995;55.740;37.402;2022-11-25T09:46:44;20.08;;;9.13;;
61108;SDS011;46995;55.740;37.402;2022-11-25T09:54:34;19.67;;;8.38;;
61108;SDS011;46995;55.740;37.402;2022-11-25T09:59:46;20.20;;;8.88;;
61108;SDS011;46995;55.740;37.402;2022-11-25T10:02:30;19.77;;;9.00;;
61108;SDS011;46995;55.740;37.402;2022-11-25T10:05:05;24.92;;;9.65;;
61108;SDS011;46995;55.740;37.402;2022-11-25T10:07:43;14.93;;;8.32;;
61108;SDS011;46995;55.740;37.402;2022-11-25T10:10:18;21.45;;;8.35;;
61108;SDS011;46995;55.740;37.402;2022-11-25T10:12:56;19.20;;;9.15;;
61108;SDS011;46995;55.740;37.402;2022-11-25T10:15:35;22.45;;;8.65;;
61108;SDS011;46995;55.740;37.402;2022-11-25T10:18:13;17.20;;;7.97;;
61108;SDS011;46995;55.740;37.402;2022-11-25T10:20:44;17.75;;;8.38;;
61108;SDS011;46995;55.740;37.402;2022-11-25T10:25:46;17.27;;;7.82;;
61108;SDS011;46995;55.740;37.402;2022-11-25T10:28:21;17.25;;;7.78;;
61108;SDS011;46995;55.740;37.402;2022-11-25T10:33:32;18.60;;;8.52;;
61108;SDS011;46995;55.740;37.402;2022-11-25T10:41:06;17.02;;;7.72;;
61108;SDS011;46995;55.740;37.402;2022-11-25T10:43:32;13.88;;;7.68;;
61108;SDS011;46995;55.740;37.402;2022-11-25T10:51:05;16.95;;;8.25;;
61108;SDS011;46995;55.740;37.402;2022-11-25T10:53:42;18.90;;;7.95;;
61108;SDS011;46995;55.740;37.402;2022-11-25T10:56:55;18.00;;;7.85;;
61108;SDS011;46995;55.740;37.402;2022-11-25T11:02:14;19.67;;;7.30;;
61108;SDS011;46995;55.740;37.402;2022-11-25T11:07:42;21.75;;;9.63;;
61108;SDS011;46995;55.740;37.402;2022-11-25T11:15:21;18.40;;;8.30;;
61108;SDS011;46995;55.740;37.402;2022-11-25T11:17:58;23.13;;;8.63;;
61108;SDS011;46995;55.740;37.402;2022-11-25T11:20:27;26.42;;;9.73;;
61108;SDS011;46995;55.740;37.402;2022-11-25T11:25:35;22.83;;;8.30;;
61108;SDS011;46995;55.740;37.402;2022-11-25T11:28:02;14.85;;;8.38;;
61108;SDS011;46995;55.740;37.402;2022-11-25T11:30:55;16.40;;;8.02;;
61108;SDS011;46995;55.740;37.402;2022-11-25T11:33:40;17.30;;;9.00;;
61108;SDS011;46995;55.740;37.402;2022-11-25T11:42:03;18.35;;;9.98;;
61108;SDS011;46995;55.740;37.402;2022-11-25T11:47:56;18.38;;;8.90;;
61108;SDS011;46995;55.740;37.402;2022-11-25T11:50:44;19.73;;;8.98;;
61108;SDS011;46995;55.740;37.402;2022-11-25T11:55:50;22.98;;;9.07;;
61108;SDS011;46995;55.740;37.402;2022-11-25T11:58:28;21.60;;;9.95;;
61108;SDS011;46995;55.740;37.402;2022-11-25T12:01:10;23.75;;;9.57;;
61108;SDS011;46995;55.740;37.402;2022-11-25T12:06:39;18.92;;;9.23;;
61108;SDS011;46995;55.740;37.402;2022-11-25T12:09:14;17.90;;;9.07;;
61108;SDS011;46995;55.740;37.402;2022-11-25T12:11:47;21.17;;;9.90;;
61108;SDS011;46995;55.740;37.402;2022-11-25T12:17:12;16.23;;;8.38;;
61108;SDS011;46995;55.740;37.402;2022-11-25T12:26:04;19.23;;;9.25;;
61108;SDS011;46995;55.740;37.402;2022-11-25T12:28:45;22.35;;;10.20;;
61108;SDS011;46995;55.740;37.402;2022-11-25T12:34:09;30.08;;;11.35;;
61108;SDS011;46995;55.740;37.402;2022-11-25T12:36:42;22.23;;;9.77;;
61108;SDS011;46995;55.740;37.402;2022-11-25T12:39:27;18.17;;;9.90;;
61108;SDS011;46995;55.740;37.402;2022-11-25T12:41:59;24.15;;;10.32;;
61108;SDS011;46995;55.740;37.402;2022-11-25T12:44:36;20.92;;;9.18;;
61108;SDS011;46995;55.740;37.402;2022-11-25T12:47:24;18.85;;;9.20;;
61108;SDS011;46995;55.740;37.402;2022-11-25T12:49:50;18.20;;;8.83;;
61108;SDS011;46995;55.740;37.402;2022-11-25T12:57:44;16.83;;;8.52;;
61108;SDS011;46995;55.740;37.402;2022-11-25T13:03:28;43.45;;;22.42;;
61108;SDS011;46995;55.740;37.402;2022-11-25T13:17:38;19.00;;;9.30;;
61108;SDS011;46995;55.740;37.402;2022-11-25T13:23:19;17.63;;;8.55;;
61108;SDS011;46995;55.740;37.402;2022-11-25T13:26:31;13.25;;;7.68;;
61108;SDS011;46995;55.740;37.402;2022-11-25T13:31:34;22.20;;;8.73;;
61108;SDS011;46995;55.740;37.402;2022-11-25T13:36:50;14.70;;;7.40;;
61108;SDS011;46995;55.740;37.402;2022-11-25T13:39:29;15.20;;;7.80;;
61108;SDS011;46995;55.740;37.402;2022-11-25T13:44:53;15.10;;;8.45;;
61108;SDS011;46995;55.740;37.402;2022-11-25T13:49:53;16.38;;;9.43;;
61108;SDS011;46995;55.740;37.402;2022-11-25T13:54:57;18.75;;;9.70;;
61108;SDS011;46995;55.740;37.402;2022-11-25T13:57:29;19.98;;;9.60;;
61108;SDS011;46995;55.740;37.402;2022-11-25T14:00:06;20.15;;;9.93;;
61108;SDS011;46995;55.740;37.402;2022-11-25T14:02:45;16.13;;;9.45;;
61108;SDS011;46995;55.740;37.402;2022-11-25T14:21:49;15.93;;;8.98;;
61108;SDS011;46995;55.740;37.402;2022-11-25T14:24:39;18.25;;;9.32;;
61108;SDS011;46995;55.740;37.402;2022-11-25T14:27:16;12.88;;;7.55;;
61108;SDS011;46995;55.740;37.402;2022-11-25T14:30:05;12.77;;;7.97;;
61108;SDS011;46995;55.740;37.402;2022-11-25T14:37:46;15.07;;;7.80;;
61108;SDS011;46995;55.740;37.402;2022-11-25T14:40:23;16.52;;;7.93;;
61108;SDS011;46995;55.740;37.402;2022-11-25T14:42:59;15.77;;;7.45;;
61108;SDS011;46995;55.740;37.402;2022-11-25T14:45:30;13.35;;;7.00;;
61108;SDS011;46995;55.740;37.402;2022-11-25T14:50:55;14.32;;;7.35;;
61108;SDS011;46995;55.740;37.402;2022-11-25T14:53:23;13.85;;;8.10;;
61108;SDS011;46995;55.740;37.402;2022-11-25T14:55:50;15.13;;;8.13;;
61108;SDS011;46995;55.740;37.402;2022-11-25T14:58:16;19.38;;;9.15;;
61108;SDS011;46995;55.740;37.402;2022-11-25T15:00:49;19.73;;;9.38;;
61108;SDS011;46995;55.740;37.402;2022-11-25T15:03:17;14.23;;;9.35;;
61108;SDS011;46995;55.740;37.402;2022-11-25T15:05:44;18.08;;;9.63;;
61108;SDS011;46995;55.740;37.402;2022-11-25T15:08:21;17.52;;;9.90;;
61108;SDS011;46995;55.740;37.402;2022-11-25T15:13:21;16.60;;;8.77;;
61108;SDS011;46995;55.740;37.402;2022-11-25T15:19:04;16.40;;;8.73;;
61108;SDS011;46995;55.740;37.402;2022-11-25T15:21:37;18.70;;;9.27;;
61108;SDS011;46995;55.740;37.402;2022-11-25T15:24:06;18.08;;;9.65;;
61108;SDS011;46995;55.740;37.402;2022-11-25T15:26:50;20.17;;;9.98;;
61108;SDS011;46995;55.740;37.402;2022-11-25T15:29:17;19.05;;;9.52;;
61108;SDS011;46995;55.740;37.402;2022-11-25T15:31:44;21.48;;;10.25;;
61108;SDS011;46995;55.740;37.402;2022-11-25T15:34:13;22.40;;;11.40;;
61108;SDS011;46995;55.740;37.402;2022-11-25T15:41:48;16.50;;;9.52;;
61108;SDS011;46995;55.740;37.402;2022-11-25T15:44:18;15.43;;;9.20;;
61108;SDS011;46995;55.740;37.402;2022-11-25T15:49:32;16.38;;;9.32;;
61108;SDS011;46995;55.740;37.402;2022-11-25T15:52:03;15.85;;;9.68;;
61108;SDS011;46995;55.740;37.402;2022-11-25T15:54:45;16.33;;;10.13;;
61108;SDS011;46995;55.740;37.402;2022-11-25T15:57:18;17.67;;;9.48;;
61108;SDS011;46995;55.740;37.402;2022-11-25T16:02:27;14.65;;;9.55;;
61108;SDS011;46995;55.740;37.402;2022-11-25T16:15:49;19.45;;;9.77;;
61108;SDS011;46995;55.740;37.402;2022-11-25T16:18:21;14.55;;;8.98;;
61108;SDS011;46995;55.740;37.402;2022-11-25T16:20:55;19.13;;;9.93;;
61108;SDS011;46995;55.740;37.402;2022-11-25T16:23:24;15.73;;;9.40;;
61108;SDS011;46995;55.740;37.402;2022-11-25T16:25:56;17.02;;;9.38;;
61108;SDS011;46995;55.740;37.402;2022-11-25T16:28:25;18.10;;;9.57;;
61108;SDS011;46995;55.740;37.402;2022-11-25T16:30:51;16.92;;;9.45;;
61108;SDS011;46995;55.740;37.402;2022-11-25T16:33:18;19.60;;;10.52;;
61108;SDS011;46995;55.740;37.402;2022-11-25T16:35:44;15.02;;;9.10;;
61108;SDS011;46995;55.740;37.402;2022-11-25T16:38:10;16.30;;;9.45;;
61108;SDS011;46995;55.740;37.402;2022-11-25T16:40:37;17.75;;;9.45;;
61108;SDS011;46995;55.740;37.402;2022-11-25T16:43:05;18.40;;;10.02;;
61108;SDS011;46995;55.740;37.402;2022-11-25T16:45:38;18.65;;;11.13;;
61108;SDS011;46995;55.740;37.402;2022-11-25T16:48:15;22.75;;;10.90;;
61108;SDS011;46995;55.740;37.402;2022-11-25T16:50:42;19.50;;;11.05;;
61108;SDS011;46995;55.740;37.402;2022-11-25T16:53:08;18.95;;;10.85;;
61108;SDS011;46995;55.740;37.402;2022-11-25T16:55:35;18.48;;;10.30;;
61108;SDS011;46995;55.740;37.402;2022-11-25T16:58:12;18.80;;;11.27;;
61108;SDS011;46995;55.740;37.402;2022-11-25T17:00:52;19.58;;;11.07;;
61108;SDS011;46995;55.740;37.402;2022-11-25T17:03:21;19.58;;;11.43;;
61108;SDS011;46995;55.740;37.402;2022-11-25T17:05:50;23.13;;;12.27;;
61108;SDS011;46995;55.740;37.402;2022-11-25T17:08:20;21.33;;;11.35;;
61108;SDS011;46995;55.740;37.402;2022-11-25T17:10:46;19.93;;;11.63;;
61108;SDS011;46995;55.740;37.402;2022-11-25T17:13:14;19.92;;;11.20;;
61108;SDS011;46995;55.740;37.402;2022-11-25T17:15:44;18.88;;;10.93;;
61108;SDS011;46995;55.740;37.402;2022-11-25T17:18:12;22.27;;;11.90;;
61108;SDS011;46995;55.740;37.402;2022-11-25T17:20:42;22.98;;;10.57;;
61108;SDS011;46995;55.740;37.402;2022-11-25T17:23:13;19.65;;;10.60;;
61108;SDS011;46995;55.740;37.402;2022-11-25T17:25:47;20.52;;;9.85;;
61108;SDS011;46995;55.740;37.402;2022-11-25T17:28:18;20.15;;;10.43;;
61108;SDS011;46995;55.740;37.402;2022-11-25T17:30:45;19.10;;;10.80;;
61108;SDS011;46995;55.740;37.402;2022-11-25T17:33:18;22.63;;;10.85;;
61108;SDS011;46995;55.740;37.402;2022-11-25T17:35:44;17.20;;;10.48;;
61108;SDS011;46995;55.740;37.402;2022-11-25T17:38:12;17.38;;;10.05;;
61108;SDS011;46995;55.740;37.402;2022-11-25T17:41:16;17.20;;;10.25;;
61108;SDS011;46995;55.740;37.402;2022-11-25T17:43:43;22.63;;;11.65;;
61108;SDS011;46995;55.740;37.402;2022-11-25T17:46:12;18.83;;;10.68;;
61108;SDS011;46995;55.740;37.402;2022-11-25T17:48:40;17.20;;;10.23;;